sensor_id;sensor_type;location;lat;lon;timestamp;P1;durP1;ratioP1;P2;durP2;ratioP2
5688;SDS011;2869;50.432;8.680;2023-05-07T00:01:32;4.57;;;3.77;;
5688;SDS011;2869;50.432;8.680;2023-05-07T00:03:59;5.33;;;4.27;;
5688;SDS011;2869;50.432;8.680;2023-05-07T00:06:26;5.23;;;4.73;;
5688;SDS011;2869;50.432;8.680;2023-05-07T00:08:55;12.23;;;4.63;;
5688;SDS011;2869;50.432;8.680;2023-05-07T00:11:22;6.70;;;4.10;;
5688;SDS011;2869;50.432;8.680;2023-05-07T00:13:49;4.43;;;3.90;;
5688;SDS011;2869;50.432;8.680;2023-05-07T00:16:16;4.87;;;4.47;;
5688;SDS011;2869;50.432;8.680;2023-05-07T00:18:42;7.60;;;4.77;;
5688;SDS011;2869;50.432;8.680;2023-05-07T00:21:10;5.40;;;4.63;;
5688;SDS011;2869;50.432;8.680;2023-05-07T00:23:36;5.80;;;4.90;;
5688;SDS011;2869;50.432;8.680;2023-05-07T00:26:05;5.70;;;4.70;;
5688;SDS011;2869;50.432;8.680;2023-05-07T00:28:31;5.33;;;4.87;;
5688;SDS011;2869;50.432;8.680;2023-05-07T00:30:58;5.33;;;4.77;;
5688;SDS011;2869;50.432;8.680;2023-05-07T00:33:24;6.47;;;5.00;;
5688;SDS011;2869;50.432;8.680;2023-05-07T00:35:52;5.73;;;5.23;;
5688;SDS011;2869;50.432;8.680;2023-05-07T00:38:19;6.07;;;5.40;;
5688;SDS011;2869;50.432;8.680;2023-05-07T00:40:45;6.00;;;5.40;;
5688;SDS011;2869;50.432;8.680;2023-05-07T00:43:13;7.47;;;5.80;;
5688;SDS011;2869;50.432;8.680;2023-05-07T00:45:40;7.40;;;5.50;;
5688;SDS011;2869;50.432;8.680;2023-05-07T00:48:06;6.27;;;5.30;;
5688;SDS011;2869;50.432;8.680;2023-05-07T00:50:33;9.70;;;6.20;;
5688;SDS011;2869;50.432;8.680;2023-05-07T00:53:00;6.90;;;5.77;;
5688;SDS011;2869;50.432;8.680;2023-05-07T00:55:27;6.70;;;5.80;;
5688;SDS011;2869;50.432;8.680;2023-05-07T00:57:54;7.93;;;6.80;;
5688;SDS011;2869;50.432;8.680;2023-05-07T01:00:22;8.43;;;7.10;;
5688;SDS011;2869;50.432;8.680;2023-05-07T01:02:50;8.87;;;6.87;;
5688;SDS011;2869;50.432;8.680;2023-05-07T01:05:17;6.90;;;6.20;;
5688;SDS011;2869;50.432;8.680;2023-05-07T01:07:44;14.40;;;5.70;;
5688;SDS011;2869;50.432;8.680;2023-05-07T01:10:12;10.83;;;6.40;;
5688;SDS011;2869;50.432;8.680;2023-05-07T01:12:39;7.90;;;6.53;;
5688;SDS011;2869;50.432;8.680;2023-05-07T01:15:07;8.43;;;6.67;;
5688;SDS011;2869;50.432;8.680;2023-05-07T01:17:36;7.43;;;6.17;;
5688;SDS011;2869;50.432;8.680;2023-05-07T01:20:05;12.60;;;6.77;;
5688;SDS011;2869;50.432;8.680;2023-05-07T01:22:34;7.67;;;5.90;;
5688;SDS011;2869;50.432;8.680;2023-05-07T01:25:02;10.23;;;7.07;;
5688;SDS011;2869;50.432;8.680;2023-05-07T01:27:30;8.93;;;6.90;;
5688;SDS011;2869;50.432;8.680;2023-05-07T01:29:58;9.80;;;6.90;;
5688;SDS011;2869;50.432;8.680;2023-05-07T01:32:26;10.13;;;7.10;;
5688;SDS011;2869;50.432;8.680;2023-05-07T01:34:58;7.00;;;6.30;;
5688;SDS011;2869;50.432;8.680;2023-05-07T01:37:27;8.03;;;6.93;;
5688;SDS011;2869;50.432;8.680;2023-05-07T01:39:56;9.43;;;7.40;;
5688;SDS011;2869;50.432;8.680;2023-05-07T01:42:23;7.90;;;7.10;;
5688;SDS011;2869;50.432;8.680;2023-05-07T01:44:50;9.03;;;7.50;;
5688;SDS011;2869;50.432;8.680;2023-05-07T01:47:17;10.33;;;7.20;;
5688;SDS011;2869;50.432;8.680;2023-05-07T01:49:44;8.10;;;7.30;;
5688;SDS011;2869;50.432;8.680;2023-05-07T01:52:11;13.70;;;6.97;;
5688;SDS011;2869;50.432;8.680;2023-05-07T01:54:37;7.07;;;6.37;;
5688;SDS011;2869;50.432;8.680;2023-05-07T01:57:05;9.47;;;6.63;;
5688;SDS011;2869;50.432;8.680;2023-05-07T01:59:32;15.70;;;7.60;;
5688;SDS011;2869;50.432;8.680;2023-05-07T02:01:58;7.03;;;6.37;;
5688;SDS011;2869;50.432;8.680;2023-05-07T02:04:25;10.47;;;6.50;;
5688;SDS011;2869;50.432;8.680;2023-05-07T02:06:52;9.20;;;7.13;;
5688;SDS011;2869;50.432;8.680;2023-05-07T02:09:18;7.93;;;6.83;;
5688;SDS011;2869;50.432;8.680;2023-05-07T02:11:45;7.30;;;6.60;;
5688;SDS011;2869;50.432;8.680;2023-05-07T02:14:13;8.80;;;6.70;;
5688;SDS011;2869;50.432;8.680;2023-05-07T02:16:40;8.53;;;7.00;;
5688;SDS011;2869;50.432;8.680;2023-05-07T02:19:07;12.83;;;6.80;;
5688;SDS011;2869;50.432;8.680;2023-05-07T02:21:33;12.00;;;6.30;;
5688;SDS011;2869;50.432;8.680;2023-05-07T02:24:00;10.60;;;6.90;;
5688;SDS011;2869;50.432;8.680;2023-05-07T02:26:26;9.00;;;6.10;;
5688;SDS011;2869;50.432;8.680;2023-05-07T02:28:53;9.00;;;7.30;;
5688;SDS011;2869;50.432;8.680;2023-05-07T02:31:21;8.10;;;6.40;;
5688;SDS011;2869;50.432;8.680;2023-05-07T02:33:48;7.70;;;6.90;;
5688;SDS011;2869;50.432;8.680;2023-05-07T02:36:14;8.73;;;7.20;;
5688;SDS011;2869;50.432;8.680;2023-05-07T02:38:41;7.90;;;6.80;;
5688;SDS011;2869;50.432;8.680;2023-05-07T02:41:08;10.57;;;7.27;;
5688;SDS011;2869;50.432;8.680;2023-05-07T02:43:35;8.50;;;6.90;;
5688;SDS011;2869;50.432;8.680;2023-05-07T02:46:02;10.47;;;7.53;;
5688;SDS011;2869;50.432;8.680;2023-05-07T02:48:30;14.67;;;7.40;;
5688;SDS011;2869;50.432;8.680;2023-05-07T02:50:57;8.50;;;6.97;;
5688;SDS011;2869;50.432;8.680;2023-05-07T02:53:24;14.00;;;7.20;;
5688;SDS011;2869;50.432;8.680;2023-05-07T02:55:52;8.90;;;7.00;;
5688;SDS011;2869;50.432;8.680;2023-05-07T02:58:18;8.27;;;6.53;;
5688;SDS011;2869;50.432;8.680;2023-05-07T03:00:45;7.50;;;6.63;;
5688;SDS011;2869;50.432;8.680;2023-05-07T03:03:12;12.40;;;7.53;;
5688;SDS011;2869;50.432;8.680;2023-05-07T03:05:40;10.90;;;7.20;;
5688;SDS011;2869;50.432;8.680;2023-05-07T03:08:08;13.23;;;7.20;;
5688;SDS011;2869;50.432;8.680;2023-05-07T03:10:35;8.53;;;6.33;;
5688;SDS011;2869;50.432;8.680;2023-05-07T03:13:02;8.13;;;7.27;;
5688;SDS011;2869;50.432;8.680;2023-05-07T03:15:29;9.70;;;7.13;;
5688;SDS011;2869;50.432;8.680;2023-05-07T03:17:56;8.83;;;6.67;;
5688;SDS011;2869;50.432;8.680;2023-05-07T03:20:23;7.47;;;6.77;;
5688;SDS011;2869;50.432;8.680;2023-05-07T03:22:51;6.40;;;5.63;;
5688;SDS011;2869;50.432;8.680;2023-05-07T03:25:17;7.87;;;6.37;;
5688;SDS011;2869;50.432;8.680;2023-05-07T03:27:44;7.90;;;6.53;;
5688;SDS011;2869;50.432;8.680;2023-05-07T03:30:11;7.27;;;6.23;;
5688;SDS011;2869;50.432;8.680;2023-05-07T03:32:38;10.57;;;6.77;;
5688;SDS011;2869;50.432;8.680;2023-05-07T03:35:05;12.33;;;6.70;;
5688;SDS011;2869;50.432;8.680;2023-05-07T03:37:32;9.57;;;6.47;;
5688;SDS011;2869;50.432;8.680;2023-05-07T03:40:00;9.43;;;6.60;;
5688;SDS011;2869;50.432;8.680;2023-05-07T03:42:27;8.00;;;7.20;;
5688;SDS011;2869;50.432;8.680;2023-05-07T03:44:54;9.90;;;7.10;;
5688;SDS011;2869;50.432;8.680;2023-05-07T03:47:21;12.20;;;7.13;;
5688;SDS011;2869;50.432;8.680;2023-05-07T03:49:48;10.73;;;6.63;;
5688;SDS011;2869;50.432;8.680;2023-05-07T03:52:15;8.57;;;6.90;;
5688;SDS011;2869;50.432;8.680;2023-05-07T03:54:47;7.67;;;6.87;;
5688;SDS011;2869;50.432;8.680;2023-05-07T03:57:15;8.77;;;7.13;;
5688;SDS011;2869;50.432;8.680;2023-05-07T03:59:42;10.03;;;7.13;;
5688;SDS011;2869;50.432;8.680;2023-05-07T04:02:08;9.77;;;6.90;;
5688;SDS011;2869;50.432;8.680;2023-05-07T04:04:35;12.10;;;7.20;;
5688;SDS011;2869;50.432;8.680;2023-05-07T04:07:01;9.07;;;7.00;;
5688;SDS011;2869;50.432;8.680;2023-05-07T04:09:29;9.37;;;7.47;;
5688;SDS011;2869;50.432;8.680;2023-05-07T04:11:56;9.17;;;7.20;;
5688;SDS011;2869;50.432;8.680;2023-05-07T04:14:24;12.77;;;7.50;;
5688;SDS011;2869;50.432;8.680;2023-05-07T04:16:50;9.50;;;7.07;;
5688;SDS011;2869;50.432;8.680;2023-05-07T04:19:17;8.13;;;7.00;;
5688;SDS011;2869;50.432;8.680;2023-05-07T04:21:43;11.97;;;7.80;;
5688;SDS011;2869;50.432;8.680;2023-05-07T04:24:10;10.40;;;8.00;;
5688;SDS011;2869;50.432;8.680;2023-05-07T04:26:37;7.30;;;6.37;;
5688;SDS011;2869;50.432;8.680;2023-05-07T04:29:03;10.40;;;7.50;;
5688;SDS011;2869;50.432;8.680;2023-05-07T04:31:31;9.87;;;7.57;;
5688;SDS011;2869;50.432;8.680;2023-05-07T04:33:58;8.60;;;7.20;;
5688;SDS011;2869;50.432;8.680;2023-05-07T04:36:24;9.43;;;7.70;;
5688;SDS011;2869;50.432;8.680;2023-05-07T04:38:52;9.67;;;7.90;;
5688;SDS011;2869;50.432;8.680;2023-05-07T04:41:19;12.73;;;7.60;;
5688;SDS011;2869;50.432;8.680;2023-05-07T04:43:45;8.27;;;7.30;;
5688;SDS011;2869;50.432;8.680;2023-05-07T04:46:12;10.03;;;8.00;;
5688;SDS011;2869;50.432;8.680;2023-05-07T04:48:40;11.50;;;8.03;;
5688;SDS011;2869;50.432;8.680;2023-05-07T04:51:06;14.80;;;7.60;;
5688;SDS011;2869;50.432;8.680;2023-05-07T04:53:33;9.23;;;7.87;;
5688;SDS011;2869;50.432;8.680;2023-05-07T04:56:00;8.77;;;7.80;;
5688;SDS011;2869;50.432;8.680;2023-05-07T04:58:26;12.70;;;7.63;;
5688;SDS011;2869;50.432;8.680;2023-05-07T05:00:56;10.80;;;7.77;;
5688;SDS011;2869;50.432;8.680;2023-05-07T05:03:23;7.80;;;7.03;;
5688;SDS011;2869;50.432;8.680;2023-05-07T05:05:51;9.70;;;8.70;;
5688;SDS011;2869;50.432;8.680;2023-05-07T05:08:18;13.10;;;9.60;;
5688;SDS011;2869;50.432;8.680;2023-05-07T05:10:45;9.67;;;7.83;;
5688;SDS011;2869;50.432;8.680;2023-05-07T05:13:13;9.10;;;7.60;;
5688;SDS011;2869;50.432;8.680;2023-05-07T05:15:40;11.77;;;8.20;;
5688;SDS011;2869;50.432;8.680;2023-05-07T05:18:06;8.97;;;7.83;;
5688;SDS011;2869;50.432;8.680;2023-05-07T05:20:33;9.13;;;7.73;;
5688;SDS011;2869;50.432;8.680;2023-05-07T05:23:01;10.10;;;8.27;;
5688;SDS011;2869;50.432;8.680;2023-05-07T05:25:28;9.70;;;8.07;;
5688;SDS011;2869;50.432;8.680;2023-05-07T05:27:54;11.97;;;8.17;;
5688;SDS011;2869;50.432;8.680;2023-05-07T05:30:21;15.73;;;7.77;;
5688;SDS011;2869;50.432;8.680;2023-05-07T05:32:48;11.33;;;8.47;;
5688;SDS011;2869;50.432;8.680;2023-05-07T05:35:14;11.00;;;9.00;;
5688;SDS011;2869;50.432;8.680;2023-05-07T05:37:41;9.13;;;8.20;;
5688;SDS011;2869;50.432;8.680;2023-05-07T05:40:10;10.10;;;8.17;;
5688;SDS011;2869;50.432;8.680;2023-05-07T05:42:37;8.40;;;7.50;;
5688;SDS011;2869;50.432;8.680;2023-05-07T05:45:04;13.33;;;8.50;;
5688;SDS011;2869;50.432;8.680;2023-05-07T05:47:31;10.43;;;8.73;;
5688;SDS011;2869;50.432;8.680;2023-05-07T05:49:58;9.63;;;8.03;;
5688;SDS011;2869;50.432;8.680;2023-05-07T05:52:24;11.30;;;8.60;;
5688;SDS011;2869;50.432;8.680;2023-05-07T05:54:51;13.77;;;8.97;;
5688;SDS011;2869;50.432;8.680;2023-05-07T05:57:19;12.50;;;9.13;;
5688;SDS011;2869;50.432;8.680;2023-05-07T05:59:46;10.23;;;8.87;;
5688;SDS011;2869;50.432;8.680;2023-05-07T06:02:13;11.83;;;8.73;;
5688;SDS011;2869;50.432;8.680;2023-05-07T06:04:39;9.50;;;8.20;;
5688;SDS011;2869;50.432;8.680;2023-05-07T06:07:07;15.87;;;9.30;;
5688;SDS011;2869;50.432;8.680;2023-05-07T06:09:34;9.90;;;8.90;;
5688;SDS011;2869;50.432;8.680;2023-05-07T06:12:00;12.47;;;9.30;;
5688;SDS011;2869;50.432;8.680;2023-05-07T06:14:28;18.40;;;8.90;;
5688;SDS011;2869;50.432;8.680;2023-05-07T06:16:55;12.20;;;8.50;;
5688;SDS011;2869;50.432;8.680;2023-05-07T06:19:22;11.67;;;9.20;;
5688;SDS011;2869;50.432;8.680;2023-05-07T06:21:49;11.57;;;9.90;;
5688;SDS011;2869;50.432;8.680;2023-05-07T06:24:16;10.40;;;9.30;;
5688;SDS011;2869;50.432;8.680;2023-05-07T06:26:42;10.50;;;9.40;;
5688;SDS011;2869;50.432;8.680;2023-05-07T06:29:09;11.87;;;9.73;;
5688;SDS011;2869;50.432;8.680;2023-05-07T06:31:37;12.33;;;9.80;;
5688;SDS011;2869;50.432;8.680;2023-05-07T06:34:03;11.17;;;9.80;;
5688;SDS011;2869;50.432;8.680;2023-05-07T06:36:30;12.10;;;10.03;;
5688;SDS011;2869;50.432;8.680;2023-05-07T06:38:57;11.97;;;10.23;;
5688;SDS011;2869;50.432;8.680;2023-05-07T06:41:23;10.47;;;9.43;;
5688;SDS011;2869;50.432;8.680;2023-05-07T06:43:50;11.63;;;10.43;;
5688;SDS011;2869;50.432;8.680;2023-05-07T06:46:17;11.37;;;10.17;;
5688;SDS011;2869;50.432;8.680;2023-05-07T06:48:45;11.33;;;10.13;;
5688;SDS011;2869;50.432;8.680;2023-05-07T06:51:12;10.93;;;9.73;;
5688;SDS011;2869;50.432;8.680;2023-05-07T06:53:38;12.90;;;9.30;;
5688;SDS011;2869;50.432;8.680;2023-05-07T06:56:05;11.60;;;9.80;;
5688;SDS011;2869;50.432;8.680;2023-05-07T06:58:32;16.13;;;10.50;;
5688;SDS011;2869;50.432;8.680;2023-05-07T07:00:59;14.43;;;10.20;;
5688;SDS011;2869;50.432;8.680;2023-05-07T07:03:25;12.60;;;10.70;;
5688;SDS011;2869;50.432;8.680;2023-05-07T07:05:53;13.87;;;11.43;;
5688;SDS011;2869;50.432;8.680;2023-05-07T07:08:21;13.57;;;11.80;;
5688;SDS011;2869;50.432;8.680;2023-05-07T07:10:48;13.63;;;11.90;;
5688;SDS011;2869;50.432;8.680;2023-05-07T07:13:15;11.63;;;10.43;;
5688;SDS011;2869;50.432;8.680;2023-05-07T07:15:41;12.97;;;11.03;;
5688;SDS011;2869;50.432;8.680;2023-05-07T07:18:09;11.37;;;10.20;;
5688;SDS011;2869;50.432;8.680;2023-05-07T07:20:35;15.33;;;11.10;;
5688;SDS011;2869;50.432;8.680;2023-05-07T07:23:03;12.70;;;11.37;;
5688;SDS011;2869;50.432;8.680;2023-05-07T07:25:30;12.17;;;10.63;;
5688;SDS011;2869;50.432;8.680;2023-05-07T07:27:57;12.90;;;10.20;;
5688;SDS011;2869;50.432;8.680;2023-05-07T07:30:24;11.00;;;9.83;;
5688;SDS011;2869;50.432;8.680;2023-05-07T07:32:52;13.70;;;9.83;;
5688;SDS011;2869;50.432;8.680;2023-05-07T07:35:18;11.43;;;8.47;;
5688;SDS011;2869;50.432;8.680;2023-05-07T07:37:45;11.17;;;9.60;;
5688;SDS011;2869;50.432;8.680;2023-05-07T07:40:16;14.60;;;9.93;;
5688;SDS011;2869;50.432;8.680;2023-05-07T07:42:42;11.97;;;10.17;;
5688;SDS011;2869;50.432;8.680;2023-05-07T07:45:09;15.00;;;9.93;;
5688;SDS011;2869;50.432;8.680;2023-05-07T07:47:36;13.37;;;10.40;;
5688;SDS011;2869;50.432;8.680;2023-05-07T07:50:03;11.73;;;10.23;;
5688;SDS011;2869;50.432;8.680;2023-05-07T07:52:31;11.23;;;9.50;;
5688;SDS011;2869;50.432;8.680;2023-05-07T07:54:57;11.10;;;9.83;;
5688;SDS011;2869;50.432;8.680;2023-05-07T07:57:25;12.60;;;10.37;;
5688;SDS011;2869;50.432;8.680;2023-05-07T07:59:52;10.23;;;8.87;;
5688;SDS011;2869;50.432;8.680;2023-05-07T08:02:18;13.00;;;9.30;;
5688;SDS011;2869;50.432;8.680;2023-05-07T08:04:45;14.53;;;10.80;;
5688;SDS011;2869;50.432;8.680;2023-05-07T08:07:12;17.23;;;10.20;;
5688;SDS011;2869;50.432;8.680;2023-05-07T08:09:39;14.53;;;10.67;;
5688;SDS011;2869;50.432;8.680;2023-05-07T08:12:06;14.70;;;11.13;;
5688;SDS011;2869;50.432;8.680;2023-05-07T08:14:34;9.17;;;8.27;;
5688;SDS011;2869;50.432;8.680;2023-05-07T08:17:02;8.33;;;7.53;;
5688;SDS011;2869;50.432;8.680;2023-05-07T08:19:28;8.57;;;7.63;;
5688;SDS011;2869;50.432;8.680;2023-05-07T08:21:55;9.60;;;8.63;;
5688;SDS011;2869;50.432;8.680;2023-05-07T08:24:21;11.67;;;9.70;;
5688;SDS011;2869;50.432;8.680;2023-05-07T08:26:48;8.80;;;7.53;;
5688;SDS011;2869;50.432;8.680;2023-05-07T08:29:15;12.23;;;7.83;;
5688;SDS011;2869;50.432;8.680;2023-05-07T08:31:43;8.90;;;7.80;;
5688;SDS011;2869;50.432;8.680;2023-05-07T08:34:10;9.57;;;7.93;;
5688;SDS011;2869;50.432;8.680;2023-05-07T08:36:36;12.20;;;7.30;;
5688;SDS011;2869;50.432;8.680;2023-05-07T08:39:03;9.53;;;8.50;;
5688;SDS011;2869;50.432;8.680;2023-05-07T08:41:30;9.97;;;8.83;;
5688;SDS011;2869;50.432;8.680;2023-05-07T08:43:57;10.13;;;7.97;;
5688;SDS011;2869;50.432;8.680;2023-05-07T08:46:25;10.43;;;8.30;;
5688;SDS011;2869;50.432;8.680;2023-05-07T08:48:58;13.10;;;8.97;;
5688;SDS011;2869;50.432;8.680;2023-05-07T08:51:24;9.20;;;8.30;;
5688;SDS011;2869;50.432;8.680;2023-05-07T08:53:52;10.53;;;8.17;;
5688;SDS011;2869;50.432;8.680;2023-05-07T08:56:18;11.03;;;8.63;;
5688;SDS011;2869;50.432;8.680;2023-05-07T08:58:47;10.00;;;8.23;;
5688;SDS011;2869;50.432;8.680;2023-05-07T09:01:15;9.60;;;8.00;;
5688;SDS011;2869;50.432;8.680;2023-05-07T09:03:43;10.77;;;8.37;;
5688;SDS011;2869;50.432;8.680;2023-05-07T09:06:12;10.68;;;7.25;;
5688;SDS011;2869;50.432;8.680;2023-05-07T09:08:39;8.70;;;7.80;;
5688;SDS011;2869;50.432;8.680;2023-05-07T09:11:06;11.53;;;7.70;;
5688;SDS011;2869;50.432;8.680;2023-05-07T09:13:32;11.53;;;8.33;;
5688;SDS011;2869;50.432;8.680;2023-05-07T09:16:02;8.80;;;7.90;;
5688;SDS011;2869;50.432;8.680;2023-05-07T09:18:39;9.57;;;8.40;;
5688;SDS011;2869;50.432;8.680;2023-05-07T09:21:09;8.73;;;7.83;;
5688;SDS011;2869;50.432;8.680;2023-05-07T09:23:37;9.73;;;8.30;;
5688;SDS011;2869;50.432;8.680;2023-05-07T09:26:04;10.77;;;8.40;;
5688;SDS011;2869;50.432;8.680;2023-05-07T09:28:37;7.60;;;6.37;;
5688;SDS011;2869;50.432;8.680;2023-05-07T09:31:04;8.60;;;7.33;;
5688;SDS011;2869;50.432;8.680;2023-05-07T09:33:31;7.87;;;7.07;;
5688;SDS011;2869;50.432;8.680;2023-05-07T09:35:57;9.10;;;8.30;;
5688;SDS011;2869;50.432;8.680;2023-05-07T09:38:24;9.80;;;6.90;;
5688;SDS011;2869;50.432;8.680;2023-05-07T09:41:02;9.63;;;7.30;;
5688;SDS011;2869;50.432;8.680;2023-05-07T09:43:31;7.90;;;7.20;;
5688;SDS011;2869;50.432;8.680;2023-05-07T09:45:59;8.23;;;6.37;;
5688;SDS011;2869;50.432;8.680;2023-05-07T09:48:34;8.33;;;7.40;;
5688;SDS011;2869;50.432;8.680;2023-05-07T09:51:05;8.60;;;6.73;;
5688;SDS011;2869;50.432;8.680;2023-05-07T09:53:37;7.97;;;7.17;;
5688;SDS011;2869;50.432;8.680;2023-05-07T09:56:07;7.70;;;7.00;;
5688;SDS011;2869;50.432;8.680;2023-05-07T09:58:34;8.67;;;7.57;;
5688;SDS011;2869;50.432;8.680;2023-05-07T10:01:03;11.30;;;7.40;;
5688;SDS011;2869;50.432;8.680;2023-05-07T10:03:31;8.33;;;7.53;;
5688;SDS011;2869;50.432;8.680;2023-05-07T10:06:01;10.63;;;9.33;;
5688;SDS011;2869;50.432;8.680;2023-05-07T10:08:29;14.53;;;10.80;;
5688;SDS011;2869;50.432;8.680;2023-05-07T10:10:56;11.50;;;8.40;;
5688;SDS011;2869;50.432;8.680;2023-05-07T10:13:24;13.80;;;10.20;;
5688;SDS011;2869;50.432;8.680;2023-05-07T10:15:51;14.37;;;9.10;;
5688;SDS011;2869;50.432;8.680;2023-05-07T10:18:19;11.23;;;9.53;;
5688;SDS011;2869;50.432;8.680;2023-05-07T10:20:48;14.40;;;9.27;;
5688;SDS011;2869;50.432;8.680;2023-05-07T10:23:18;9.90;;;8.83;;
5688;SDS011;2869;50.432;8.680;2023-05-07T10:25:50;11.67;;;8.20;;
5688;SDS011;2869;50.432;8.680;2023-05-07T10:28:18;8.93;;;8.03;;
5688;SDS011;2869;50.432;8.680;2023-05-07T10:30:53;9.93;;;8.50;;
5688;SDS011;2869;50.432;8.680;2023-05-07T10:33:27;13.10;;;10.43;;
5688;SDS011;2869;50.432;8.680;2023-05-07T10:35:55;14.20;;;12.20;;
5688;SDS011;2869;50.432;8.680;2023-05-07T10:38:24;12.00;;;9.47;;
5688;SDS011;2869;50.432;8.680;2023-05-07T10:40:51;12.60;;;9.13;;
5688;SDS011;2869;50.432;8.680;2023-05-07T10:43:18;11.67;;;8.50;;
5688;SDS011;2869;50.432;8.680;2023-05-07T10:45:50;10.00;;;8.60;;
5688;SDS011;2869;50.432;8.680;2023-05-07T10:48:38;9.10;;;8.20;;
5688;SDS011;2869;50.432;8.680;2023-05-07T10:51:41;9.63;;;8.43;;
5688;SDS011;2869;50.432;8.680;2023-05-07T10:54:22;11.33;;;7.47;;
5688;SDS011;2869;50.432;8.680;2023-05-07T10:56:52;8.63;;;7.17;;
5688;SDS011;2869;50.432;8.680;2023-05-07T11:02:14;7.97;;;6.90;;
5688;SDS011;2869;50.432;8.680;2023-05-07T11:04:40;7.10;;;6.40;;
5688;SDS011;2869;50.432;8.680;2023-05-07T11:07:26;7.73;;;6.90;;
5688;SDS011;2869;50.432;8.680;2023-05-07T11:09:58;7.70;;;6.90;;
5688;SDS011;2869;50.432;8.680;2023-05-07T11:15:41;8.63;;;6.70;;
5688;SDS011;2869;50.432;8.680;2023-05-07T11:18:11;7.00;;;6.30;;
5688;SDS011;2869;50.432;8.680;2023-05-07T11:20:45;8.67;;;6.80;;
5688;SDS011;2869;50.432;8.680;2023-05-07T11:26:41;8.43;;;7.00;;
5688;SDS011;2869;50.432;8.680;2023-05-07T11:29:12;9.57;;;7.30;;
5688;SDS011;2869;50.432;8.680;2023-05-07T11:31:43;9.47;;;7.10;;
5688;SDS011;2869;50.432;8.680;2023-05-07T11:34:11;7.77;;;7.07;;
5688;SDS011;2869;50.432;8.680;2023-05-07T11:36:41;7.30;;;6.60;;
5688;SDS011;2869;50.432;8.680;2023-05-07T11:39:29;8.10;;;6.80;;
5688;SDS011;2869;50.432;8.680;2023-05-07T11:41:56;13.53;;;6.73;;
5688;SDS011;2869;50.432;8.680;2023-05-07T11:44:23;8.50;;;6.50;;
5688;SDS011;2869;50.432;8.680;2023-05-07T11:46:50;8.53;;;7.73;;
5688;SDS011;2869;50.432;8.680;2023-05-07T11:49:18;7.07;;;6.40;;
5688;SDS011;2869;50.432;8.680;2023-05-07T11:51:44;9.70;;;7.60;;
5688;SDS011;2869;50.432;8.680;2023-05-07T11:54:11;7.80;;;6.90;;
5688;SDS011;2869;50.432;8.680;2023-05-07T11:56:42;8.17;;;7.20;;
5688;SDS011;2869;50.432;8.680;2023-05-07T11:59:09;7.37;;;6.40;;
5688;SDS011;2869;50.432;8.680;2023-05-07T12:01:36;7.17;;;6.47;;
5688;SDS011;2869;50.432;8.680;2023-05-07T12:04:03;6.80;;;6.00;;
5688;SDS011;2869;50.432;8.680;2023-05-07T12:06:35;10.83;;;6.30;;
5688;SDS011;2869;50.432;8.680;2023-05-07T12:09:02;7.93;;;6.37;;
5688;SDS011;2869;50.432;8.680;2023-05-07T12:11:30;7.27;;;6.33;;
5688;SDS011;2869;50.432;8.680;2023-05-07T12:13:56;6.73;;;6.03;;
5688;SDS011;2869;50.432;8.680;2023-05-07T12:16:23;7.20;;;6.50;;
5688;SDS011;2869;50.432;8.680;2023-05-07T12:18:50;6.70;;;6.00;;
5688;SDS011;2869;50.432;8.680;2023-05-07T12:21:17;7.97;;;7.17;;
5688;SDS011;2869;50.432;8.680;2023-05-07T12:23:45;10.57;;;6.37;;
5688;SDS011;2869;50.432;8.680;2023-05-07T12:26:13;5.87;;;5.37;;
5688;SDS011;2869;50.432;8.680;2023-05-07T12:28:39;11.57;;;6.40;;
5688;SDS011;2869;50.432;8.680;2023-05-07T12:31:06;6.80;;;5.53;;
5688;SDS011;2869;50.432;8.680;2023-05-07T12:33:34;7.80;;;5.57;;
5688;SDS011;2869;50.432;8.680;2023-05-07T12:36:02;6.53;;;5.93;;
5688;SDS011;2869;50.432;8.680;2023-05-07T12:38:34;6.53;;;5.93;;
5688;SDS011;2869;50.432;8.680;2023-05-07T12:41:03;5.50;;;4.80;;
5688;SDS011;2869;50.432;8.680;2023-05-07T12:43:30;9.63;;;5.63;;
5688;SDS011;2869;50.432;8.680;2023-05-07T12:45:57;7.70;;;6.20;;
5688;SDS011;2869;50.432;8.680;2023-05-07T12:48:26;6.43;;;5.83;;
5688;SDS011;2869;50.432;8.680;2023-05-07T12:50:54;6.50;;;5.90;;
5688;SDS011;2869;50.432;8.680;2023-05-07T12:53:22;6.97;;;6.27;;
5688;SDS011;2869;50.432;8.680;2023-05-07T12:55:51;7.23;;;6.20;;
5688;SDS011;2869;50.432;8.680;2023-05-07T12:58:21;7.67;;;6.83;;
5688;SDS011;2869;50.432;8.680;2023-05-07T13:00:52;6.37;;;5.73;;
5688;SDS011;2869;50.432;8.680;2023-05-07T13:03:23;7.63;;;6.83;;
5688;SDS011;2869;50.432;8.680;2023-05-07T13:05:52;6.90;;;6.20;;
5688;SDS011;2869;50.432;8.680;2023-05-07T13:08:29;6.47;;;5.87;;
5688;SDS011;2869;50.432;8.680;2023-05-07T13:10:57;9.40;;;6.30;;
5688;SDS011;2869;50.432;8.680;2023-05-07T13:13:26;7.00;;;5.90;;
5688;SDS011;2869;50.432;8.680;2023-05-07T13:15:52;6.80;;;6.13;;
5688;SDS011;2869;50.432;8.680;2023-05-07T13:18:19;5.80;;;5.30;;
5688;SDS011;2869;50.432;8.680;2023-05-07T13:20:45;6.50;;;5.90;;
5688;SDS011;2869;50.432;8.680;2023-05-07T13:23:12;6.50;;;5.90;;
5688;SDS011;2869;50.432;8.680;2023-05-07T13:25:39;6.30;;;5.67;;
5688;SDS011;2869;50.432;8.680;2023-05-07T13:28:05;5.80;;;5.30;;
5688;SDS011;2869;50.432;8.680;2023-05-07T13:30:33;6.00;;;5.20;;
5688;SDS011;2869;50.432;8.680;2023-05-07T13:33:00;6.90;;;6.00;;
5688;SDS011;2869;50.432;8.680;2023-05-07T13:35:27;12.43;;;4.43;;
5688;SDS011;2869;50.432;8.680;2023-05-07T13:37:54;7.77;;;4.93;;
5688;SDS011;2869;50.432;8.680;2023-05-07T13:40:20;5.40;;;4.90;;
5688;SDS011;2869;50.432;8.680;2023-05-07T13:42:48;8.10;;;5.00;;
5688;SDS011;2869;50.432;8.680;2023-05-07T13:45:15;5.23;;;4.20;;
5688;SDS011;2869;50.432;8.680;2023-05-07T13:47:43;5.60;;;4.60;;
5688;SDS011;2869;50.432;8.680;2023-05-07T13:50:10;3.97;;;3.67;;
5688;SDS011;2869;50.432;8.680;2023-05-07T13:52:39;5.57;;;3.73;;
5688;SDS011;2869;50.432;8.680;2023-05-07T13:55:08;3.63;;;3.33;;
5688;SDS011;2869;50.432;8.680;2023-05-07T13:57:35;6.57;;;4.37;;
5688;SDS011;2869;50.432;8.680;2023-05-07T14:00:02;3.43;;;3.10;;
5688;SDS011;2869;50.432;8.680;2023-05-07T14:02:29;3.63;;;3.43;;
5688;SDS011;2869;50.432;8.680;2023-05-07T14:04:57;3.03;;;2.83;;
5688;SDS011;2869;50.432;8.680;2023-05-07T14:07:24;4.37;;;3.10;;
5688;SDS011;2869;50.432;8.680;2023-05-07T14:09:51;3.43;;;2.97;;
5688;SDS011;2869;50.432;8.680;2023-05-07T14:12:18;5.53;;;3.23;;
5688;SDS011;2869;50.432;8.680;2023-05-07T14:14:44;3.40;;;3.10;;
5688;SDS011;2869;50.432;8.680;2023-05-07T14:17:11;2.80;;;2.60;;
5688;SDS011;2869;50.432;8.680;2023-05-07T14:19:38;6.78;;;2.70;;
5688;SDS011;2869;50.432;8.680;2023-05-07T14:22:06;3.43;;;3.10;;
5688;SDS011;2869;50.432;8.680;2023-05-07T14:24:32;3.37;;;3.07;;
5688;SDS011;2869;50.432;8.680;2023-05-07T14:26:59;3.60;;;3.30;;
5688;SDS011;2869;50.432;8.680;2023-05-07T14:29:26;4.30;;;3.30;;
5688;SDS011;2869;50.432;8.680;2023-05-07T14:31:52;3.20;;;3.00;;
5688;SDS011;2869;50.432;8.680;2023-05-07T14:34:19;3.27;;;3.07;;
5688;SDS011;2869;50.432;8.680;2023-05-07T14:36:46;3.27;;;3.07;;
5688;SDS011;2869;50.432;8.680;2023-05-07T14:39:14;3.20;;;3.00;;
5688;SDS011;2869;50.432;8.680;2023-05-07T14:41:40;5.83;;;3.17;;
5688;SDS011;2869;50.432;8.680;2023-05-07T14:44:07;3.63;;;3.33;;
5688;SDS011;2869;50.432;8.680;2023-05-07T14:46:33;3.37;;;2.90;;
5688;SDS011;2869;50.432;8.680;2023-05-07T14:49:01;4.87;;;2.80;;
5688;SDS011;2869;50.432;8.680;2023-05-07T14:51:29;6.10;;;3.60;;
5688;SDS011;2869;50.432;8.680;2023-05-07T14:53:56;3.10;;;2.90;;
5688;SDS011;2869;50.432;8.680;2023-05-07T14:56:24;3.73;;;3.40;;
5688;SDS011;2869;50.432;8.680;2023-05-07T14:58:50;4.53;;;2.90;;
5688;SDS011;2869;50.432;8.680;2023-05-07T15:01:17;3.83;;;2.83;;
5688;SDS011;2869;50.432;8.680;2023-05-07T15:03:44;4.03;;;3.17;;
5688;SDS011;2869;50.432;8.680;2023-05-07T15:06:10;3.03;;;2.80;;
5688;SDS011;2869;50.432;8.680;2023-05-07T15:08:37;4.23;;;2.70;;
5688;SDS011;2869;50.432;8.680;2023-05-07T15:11:03;5.27;;;2.60;;
5688;SDS011;2869;50.432;8.680;2023-05-07T15:13:31;3.93;;;3.57;;
5688;SDS011;2869;50.432;8.680;2023-05-07T15:15:58;3.00;;;2.80;;
5688;SDS011;2869;50.432;8.680;2023-05-07T15:18:25;2.60;;;2.40;;
5688;SDS011;2869;50.432;8.680;2023-05-07T15:20:51;3.30;;;2.60;;
5688;SDS011;2869;50.432;8.680;2023-05-07T15:23:18;4.50;;;3.10;;